Terminal Aerodrome Forecast
Issued by NWS

Home | Current Version | Previous Version | Text Only | Print | Product List | Glossary On
Versions: 1 2 3 4 5 6 7 8 9 10 11 12
000
FTUS42 TJSJ 301120
TAFJMZ
TAF
TJMZ 301120Z 3012/3112 VRB06KT P6SM FEW040 BKN100
     FM301530 33008KT P6SM VCTS BKN030CB BKN050
      TEMPO 3017/3021 VRB10G20KT 3SM TSRA BKN020CB OVC040
     FM302200 06004KT P6SM SCT025 BKN050 OVC100
      AMD NOT SKED=

USA.gov is the U.S. government's official web portal to all federal, state and local government web resources and services.